sensor_id;sensor_type;location;lat;lon;timestamp;P1;durP1;ratioP1;P2;durP2;ratioP2
3006;SDS011;1513;47.650;10.720;2022-12-18T00:01:13;144.33;;;15.23;;
3006;SDS011;1513;47.650;10.720;2022-12-18T00:03:47;143.93;;;15.43;;
3006;SDS011;1513;47.650;10.720;2022-12-18T00:06:13;129.00;;;15.07;;
3006;SDS011;1513;47.650;10.720;2022-12-18T00:08:41;178.87;;;18.60;;
3006;SDS011;1513;47.650;10.720;2022-12-18T00:11:08;170.07;;;18.47;;
3006;SDS011;1513;47.650;10.720;2022-12-18T00:13:38;118.70;;;15.20;;
3006;SDS011;1513;47.650;10.720;2022-12-18T00:16:05;193.93;;;17.20;;
3006;SDS011;1513;47.650;10.720;2022-12-18T00:18:34;135.93;;;14.83;;
3006;SDS011;1513;47.650;10.720;2022-12-18T00:21:00;138.17;;;13.60;;
3006;SDS011;1513;47.650;10.720;2022-12-18T00:23:30;154.13;;;15.70;;
3006;SDS011;1513;47.650;10.720;2022-12-18T00:26:00;102.83;;;15.10;;
3006;SDS011;1513;47.650;10.720;2022-12-18T00:28:29;93.27;;;16.30;;
3006;SDS011;1513;47.650;10.720;2022-12-18T00:31:14;150.17;;;15.20;;
3006;SDS011;1513;47.650;10.720;2022-12-18T00:33:43;149.50;;;14.50;;
3006;SDS011;1513;47.650;10.720;2022-12-18T00:36:11;150.47;;;14.37;;
3006;SDS011;1513;47.650;10.720;2022-12-18T00:38:46;217.40;;;16.97;;
3006;SDS011;1513;47.650;10.720;2022-12-18T00:41:13;161.77;;;15.47;;
3006;SDS011;1513;47.650;10.720;2022-12-18T00:44:00;109.43;;;15.40;;
3006;SDS011;1513;47.650;10.720;2022-12-18T00:46:26;44.90;;;11.10;;
3006;SDS011;1513;47.650;10.720;2022-12-18T00:48:52;161.57;;;16.97;;
3006;SDS011;1513;47.650;10.720;2022-12-18T00:51:18;104.60;;;14.03;;
3006;SDS011;1513;47.650;10.720;2022-12-18T00:53:44;78.10;;;12.70;;
3006;SDS011;1513;47.650;10.720;2022-12-18T00:56:10;115.03;;;15.30;;
3006;SDS011;1513;47.650;10.720;2022-12-18T00:58:36;88.10;;;12.00;;
3006;SDS011;1513;47.650;10.720;2022-12-18T01:01:03;105.33;;;13.50;;
3006;SDS011;1513;47.650;10.720;2022-12-18T01:03:33;144.50;;;13.43;;
3006;SDS011;1513;47.650;10.720;2022-12-18T01:06:04;100.33;;;14.83;;
3006;SDS011;1513;47.650;10.720;2022-12-18T01:08:35;141.87;;;15.50;;
3006;SDS011;1513;47.650;10.720;2022-12-18T01:11:06;78.83;;;14.60;;
3006;SDS011;1513;47.650;10.720;2022-12-18T01:13:39;90.63;;;13.07;;
3006;SDS011;1513;47.650;10.720;2022-12-18T01:16:05;58.60;;;9.00;;
3006;SDS011;1513;47.650;10.720;2022-12-18T01:18:34;62.23;;;12.63;;
3006;SDS011;1513;47.650;10.720;2022-12-18T01:21:00;58.13;;;11.27;;
3006;SDS011;1513;47.650;10.720;2022-12-18T01:23:31;34.80;;;10.50;;
3006;SDS011;1513;47.650;10.720;2022-12-18T01:26:03;39.50;;;11.30;;
3006;SDS011;1513;47.650;10.720;2022-12-18T01:28:40;30.43;;;10.90;;
3006;SDS011;1513;47.650;10.720;2022-12-18T01:31:09;37.80;;;9.40;;
3006;SDS011;1513;47.650;10.720;2022-12-18T01:33:37;29.17;;;9.30;;
3006;SDS011;1513;47.650;10.720;2022-12-18T01:36:05;29.33;;;9.20;;
3006;SDS011;1513;47.650;10.720;2022-12-18T01:38:31;29.10;;;10.57;;
3006;SDS011;1513;47.650;10.720;2022-12-18T01:40:58;28.10;;;9.10;;
3006;SDS011;1513;47.650;10.720;2022-12-18T01:46:13;28.83;;;8.73;;
3006;SDS011;1513;47.650;10.720;2022-12-18T01:48:40;29.07;;;8.33;;
3006;SDS011;1513;47.650;10.720;2022-12-18T01:51:07;29.43;;;8.37;;
3006;SDS011;1513;47.650;10.720;2022-12-18T01:53:36;22.00;;;8.47;;
3006;SDS011;1513;47.650;10.720;2022-12-18T01:56:03;21.70;;;7.30;;
3006;SDS011;1513;47.650;10.720;2022-12-18T01:59:16;23.87;;;8.23;;
3006;SDS011;1513;47.650;10.720;2022-12-18T02:01:22;23.93;;;8.33;;
3006;SDS011;1513;47.650;10.720;2022-12-18T02:03:49;31.37;;;10.20;;
3006;SDS011;1513;47.650;10.720;2022-12-18T02:06:30;22.87;;;7.73;;
3006;SDS011;1513;47.650;10.720;2022-12-18T02:09:11;32.33;;;9.03;;
3006;SDS011;1513;47.650;10.720;2022-12-18T02:14:41;23.00;;;8.13;;
3006;SDS011;1513;47.650;10.720;2022-12-18T02:17:39;20.43;;;7.17;;
3006;SDS011;1513;47.650;10.720;2022-12-18T02:20:36;20.37;;;7.00;;
3006;SDS011;1513;47.650;10.720;2022-12-18T02:26:04;28.90;;;8.83;;
3006;SDS011;1513;47.650;10.720;2022-12-18T02:28:48;32.20;;;9.80;;
3006;SDS011;1513;47.650;10.720;2022-12-18T02:31:20;38.23;;;9.70;;
3006;SDS011;1513;47.650;10.720;2022-12-18T02:33:58;42.93;;;10.27;;
3006;SDS011;1513;47.650;10.720;2022-12-18T02:36:32;32.07;;;10.17;;
3006;SDS011;1513;47.650;10.720;2022-12-18T02:39:00;71.40;;;9.80;;
3006;SDS011;1513;47.650;10.720;2022-12-18T02:41:30;85.17;;;10.20;;
3006;SDS011;1513;47.650;10.720;2022-12-18T02:43:58;57.77;;;10.90;;
3006;SDS011;1513;47.650;10.720;2022-12-18T02:46:31;50.90;;;9.27;;
3006;SDS011;1513;47.650;10.720;2022-12-18T02:49:21;101.27;;;11.20;;
3006;SDS011;1513;47.650;10.720;2022-12-18T03:01:31;54.43;;;9.83;;
3006;SDS011;1513;47.650;10.720;2022-12-18T03:04:26;36.53;;;9.00;;
3006;SDS011;1513;47.650;10.720;2022-12-18T03:07:05;42.57;;;10.67;;
3006;SDS011;1513;47.650;10.720;2022-12-18T03:09:43;37.73;;;9.07;;
3006;SDS011;1513;47.650;10.720;2022-12-18T03:12:22;36.03;;;9.27;;
3006;SDS011;1513;47.650;10.720;2022-12-18T03:15:04;29.07;;;8.47;;
3006;SDS011;1513;47.650;10.720;2022-12-18T03:18:08;19.20;;;6.53;;
3006;SDS011;1513;47.650;10.720;2022-12-18T03:20:41;28.43;;;8.13;;
3006;SDS011;1513;47.650;10.720;2022-12-18T03:23:13;26.40;;;6.80;;
3006;SDS011;1513;47.650;10.720;2022-12-18T03:25:47;46.50;;;7.63;;
3006;SDS011;1513;47.650;10.720;2022-12-18T03:28:20;52.20;;;8.70;;
3006;SDS011;1513;47.650;10.720;2022-12-18T03:30:54;47.07;;;7.50;;
3006;SDS011;1513;47.650;10.720;2022-12-18T03:33:27;37.63;;;7.57;;
3006;SDS011;1513;47.650;10.720;2022-12-18T03:35:59;46.43;;;7.20;;
3006;SDS011;1513;47.650;10.720;2022-12-18T03:38:26;46.47;;;7.23;;
3006;SDS011;1513;47.650;10.720;2022-12-18T03:41:04;29.23;;;5.73;;
3006;SDS011;1513;47.650;10.720;2022-12-18T03:44:14;21.30;;;6.27;;
3006;SDS011;1513;47.650;10.720;2022-12-18T03:52:38;22.77;;;6.20;;
3006;SDS011;1513;47.650;10.720;2022-12-18T03:55:15;24.10;;;7.43;;
3006;SDS011;1513;47.650;10.720;2022-12-18T03:57:47;22.53;;;7.50;;
3006;SDS011;1513;47.650;10.720;2022-12-18T04:00:15;19.13;;;6.60;;
3006;SDS011;1513;47.650;10.720;2022-12-18T04:03:00;19.80;;;7.07;;
3006;SDS011;1513;47.650;10.720;2022-12-18T04:05:36;21.80;;;6.33;;
3006;SDS011;1513;47.650;10.720;2022-12-18T04:08:03;15.00;;;6.37;;
3006;SDS011;1513;47.650;10.720;2022-12-18T04:10:37;22.30;;;6.80;;
3006;SDS011;1513;47.650;10.720;2022-12-18T04:13:03;25.13;;;7.10;;
3006;SDS011;1513;47.650;10.720;2022-12-18T04:15:28;22.60;;;7.67;;
3006;SDS011;1513;47.650;10.720;2022-12-18T04:17:56;22.87;;;7.30;;
3006;SDS011;1513;47.650;10.720;2022-12-18T04:20:24;28.30;;;7.20;;
3006;SDS011;1513;47.650;10.720;2022-12-18T04:22:52;30.13;;;8.43;;
3006;SDS011;1513;47.650;10.720;2022-12-18T04:25:18;20.67;;;6.90;;
3006;SDS011;1513;47.650;10.720;2022-12-18T04:28:03;25.33;;;8.20;;
3006;SDS011;1513;47.650;10.720;2022-12-18T04:30:29;27.17;;;7.90;;
3006;SDS011;1513;47.650;10.720;2022-12-18T04:32:55;33.77;;;11.07;;
3006;SDS011;1513;47.650;10.720;2022-12-18T04:35:21;35.63;;;8.07;;
3006;SDS011;1513;47.650;10.720;2022-12-18T04:37:47;37.77;;;7.77;;
3006;SDS011;1513;47.650;10.720;2022-12-18T04:40:14;36.57;;;7.53;;
3006;SDS011;1513;47.650;10.720;2022-12-18T04:42:43;43.53;;;7.17;;
3006;SDS011;1513;47.650;10.720;2022-12-18T04:45:09;33.03;;;8.93;;
3006;SDS011;1513;47.650;10.720;2022-12-18T04:47:35;27.37;;;7.83;;
3006;SDS011;1513;47.650;10.720;2022-12-18T04:50:01;23.97;;;7.60;;
3006;SDS011;1513;47.650;10.720;2022-12-18T04:52:31;39.20;;;8.63;;
3006;SDS011;1513;47.650;10.720;2022-12-18T04:54:57;29.40;;;6.90;;
3006;SDS011;1513;47.650;10.720;2022-12-18T04:57:23;26.73;;;6.30;;
3006;SDS011;1513;47.650;10.720;2022-12-18T04:59:49;37.77;;;7.27;;
3006;SDS011;1513;47.650;10.720;2022-12-18T05:02:14;37.10;;;8.27;;
3006;SDS011;1513;47.650;10.720;2022-12-18T05:04:40;32.20;;;8.80;;
3006;SDS011;1513;47.650;10.720;2022-12-18T05:07:06;46.50;;;9.10;;
3006;SDS011;1513;47.650;10.720;2022-12-18T05:09:32;47.37;;;10.17;;
3006;SDS011;1513;47.650;10.720;2022-12-18T05:11:58;29.93;;;7.60;;
3006;SDS011;1513;47.650;10.720;2022-12-18T05:14:24;40.67;;;8.97;;
3006;SDS011;1513;47.650;10.720;2022-12-18T05:16:49;33.47;;;7.80;;
3006;SDS011;1513;47.650;10.720;2022-12-18T05:19:15;31.57;;;8.60;;
3006;SDS011;1513;47.650;10.720;2022-12-18T05:21:41;40.63;;;8.97;;
3006;SDS011;1513;47.650;10.720;2022-12-18T05:24:07;37.40;;;8.30;;
3006;SDS011;1513;47.650;10.720;2022-12-18T05:26:33;42.87;;;9.17;;
3006;SDS011;1513;47.650;10.720;2022-12-18T05:28:58;39.40;;;9.63;;
3006;SDS011;1513;47.650;10.720;2022-12-18T05:31:24;37.80;;;11.13;;
3006;SDS011;1513;47.650;10.720;2022-12-18T05:33:50;38.10;;;13.33;;
3006;SDS011;1513;47.650;10.720;2022-12-18T05:36:16;47.83;;;13.67;;
3006;SDS011;1513;47.650;10.720;2022-12-18T05:38:42;33.80;;;9.37;;
3006;SDS011;1513;47.650;10.720;2022-12-18T05:41:08;36.30;;;10.00;;
3006;SDS011;1513;47.650;10.720;2022-12-18T05:43:35;24.53;;;6.90;;
3006;SDS011;1513;47.650;10.720;2022-12-18T05:46:03;42.73;;;11.20;;
3006;SDS011;1513;47.650;10.720;2022-12-18T05:48:31;36.70;;;10.37;;
3006;SDS011;1513;47.650;10.720;2022-12-18T05:51:02;56.50;;;10.87;;
3006;SDS011;1513;47.650;10.720;2022-12-18T05:53:31;35.60;;;8.90;;
3006;SDS011;1513;47.650;10.720;2022-12-18T05:55:59;45.77;;;9.43;;
3006;SDS011;1513;47.650;10.720;2022-12-18T05:58:28;57.63;;;9.70;;
3006;SDS011;1513;47.650;10.720;2022-12-18T06:00:55;78.70;;;9.67;;
3006;SDS011;1513;47.650;10.720;2022-12-18T06:03:21;70.30;;;9.90;;
3006;SDS011;1513;47.650;10.720;2022-12-18T06:05:47;33.30;;;10.33;;
3006;SDS011;1513;47.650;10.720;2022-12-18T06:08:13;122.47;;;14.60;;
3006;SDS011;1513;47.650;10.720;2022-12-18T06:10:39;72.10;;;9.63;;
3006;SDS011;1513;47.650;10.720;2022-12-18T06:13:06;47.63;;;9.20;;
3006;SDS011;1513;47.650;10.720;2022-12-18T06:15:32;33.07;;;8.57;;
3006;SDS011;1513;47.650;10.720;2022-12-18T06:17:59;48.47;;;9.13;;
3006;SDS011;1513;47.650;10.720;2022-12-18T06:20:26;43.17;;;9.17;;
3006;SDS011;1513;47.650;10.720;2022-12-18T06:22:51;44.97;;;9.10;;
3006;SDS011;1513;47.650;10.720;2022-12-18T06:25:17;24.40;;;8.00;;
3006;SDS011;1513;47.650;10.720;2022-12-18T06:27:43;26.57;;;8.73;;
3006;SDS011;1513;47.650;10.720;2022-12-18T06:30:09;27.47;;;7.77;;
3006;SDS011;1513;47.650;10.720;2022-12-18T06:32:36;28.43;;;8.23;;
3006;SDS011;1513;47.650;10.720;2022-12-18T06:35:02;32.83;;;8.90;;
3006;SDS011;1513;47.650;10.720;2022-12-18T06:37:30;27.07;;;8.70;;
3006;SDS011;1513;47.650;10.720;2022-12-18T06:39:56;20.00;;;6.70;;
3006;SDS011;1513;47.650;10.720;2022-12-18T06:42:22;22.93;;;8.30;;
3006;SDS011;1513;47.650;10.720;2022-12-18T06:44:49;33.30;;;9.90;;
3006;SDS011;1513;47.650;10.720;2022-12-18T06:47:15;28.93;;;8.00;;
3006;SDS011;1513;47.650;10.720;2022-12-18T06:49:41;21.40;;;7.40;;
3006;SDS011;1513;47.650;10.720;2022-12-18T06:52:06;33.93;;;7.60;;
3006;SDS011;1513;47.650;10.720;2022-12-18T06:54:32;40.17;;;8.10;;
3006;SDS011;1513;47.650;10.720;2022-12-18T06:56:58;54.90;;;7.93;;
3006;SDS011;1513;47.650;10.720;2022-12-18T06:59:24;33.90;;;7.80;;
3006;SDS011;1513;47.650;10.720;2022-12-18T07:01:50;25.87;;;7.13;;
3006;SDS011;1513;47.650;10.720;2022-12-18T07:04:16;39.40;;;8.40;;
3006;SDS011;1513;47.650;10.720;2022-12-18T07:06:42;21.67;;;6.10;;
3006;SDS011;1513;47.650;10.720;2022-12-18T07:09:08;53.30;;;9.00;;
3006;SDS011;1513;47.650;10.720;2022-12-18T07:11:34;62.80;;;7.97;;
3006;SDS011;1513;47.650;10.720;2022-12-18T07:14:00;47.17;;;7.67;;
3006;SDS011;1513;47.650;10.720;2022-12-18T07:16:26;80.30;;;16.00;;
3006;SDS011;1513;47.650;10.720;2022-12-18T07:18:54;43.63;;;9.87;;
3006;SDS011;1513;47.650;10.720;2022-12-18T07:21:21;44.40;;;11.17;;
3006;SDS011;1513;47.650;10.720;2022-12-18T07:23:49;39.33;;;8.47;;
3006;SDS011;1513;47.650;10.720;2022-12-18T07:26:16;42.13;;;8.90;;
3006;SDS011;1513;47.650;10.720;2022-12-18T07:28:43;47.77;;;9.37;;
3006;SDS011;1513;47.650;10.720;2022-12-18T07:31:11;76.77;;;9.30;;
3006;SDS011;1513;47.650;10.720;2022-12-18T07:33:42;26.43;;;7.20;;
3006;SDS011;1513;47.650;10.720;2022-12-18T07:36:08;49.47;;;9.03;;
3006;SDS011;1513;47.650;10.720;2022-12-18T07:38:35;61.40;;;9.50;;
3006;SDS011;1513;47.650;10.720;2022-12-18T07:41:06;129.47;;;9.77;;
3006;SDS011;1513;47.650;10.720;2022-12-18T07:43:35;67.80;;;7.20;;
3006;SDS011;1513;47.650;10.720;2022-12-18T07:46:01;44.10;;;10.97;;
3006;SDS011;1513;47.650;10.720;2022-12-18T07:48:28;37.47;;;8.57;;
3006;SDS011;1513;47.650;10.720;2022-12-18T07:50:57;38.80;;;8.67;;
3006;SDS011;1513;47.650;10.720;2022-12-18T07:53:29;43.63;;;9.43;;
3006;SDS011;1513;47.650;10.720;2022-12-18T07:55:58;49.20;;;9.30;;
3006;SDS011;1513;47.650;10.720;2022-12-18T07:58:28;50.80;;;9.20;;
3006;SDS011;1513;47.650;10.720;2022-12-18T08:01:02;38.73;;;9.33;;
3006;SDS011;1513;47.650;10.720;2022-12-18T08:03:33;49.93;;;8.60;;
3006;SDS011;1513;47.650;10.720;2022-12-18T08:06:00;79.40;;;8.97;;
3006;SDS011;1513;47.650;10.720;2022-12-18T08:08:27;48.73;;;7.83;;
3006;SDS011;1513;47.650;10.720;2022-12-18T08:10:53;52.80;;;7.17;;
3006;SDS011;1513;47.650;10.720;2022-12-18T08:13:20;27.27;;;7.00;;
3006;SDS011;1513;47.650;10.720;2022-12-18T08:15:46;28.33;;;7.63;;
3006;SDS011;1513;47.650;10.720;2022-12-18T08:18:20;40.60;;;8.63;;
3006;SDS011;1513;47.650;10.720;2022-12-18T08:20:46;19.27;;;7.40;;
3006;SDS011;1513;47.650;10.720;2022-12-18T08:23:12;23.50;;;7.73;;
3006;SDS011;1513;47.650;10.720;2022-12-18T08:25:38;24.40;;;8.10;;
3006;SDS011;1513;47.650;10.720;2022-12-18T08:28:04;27.13;;;8.83;;
3006;SDS011;1513;47.650;10.720;2022-12-18T08:30:29;17.33;;;6.07;;
3006;SDS011;1513;47.650;10.720;2022-12-18T08:32:55;19.83;;;7.17;;
3006;SDS011;1513;47.650;10.720;2022-12-18T08:35:21;28.13;;;7.77;;
3006;SDS011;1513;47.650;10.720;2022-12-18T08:37:47;19.60;;;7.63;;
3006;SDS011;1513;47.650;10.720;2022-12-18T08:40:13;13.43;;;5.97;;
3006;SDS011;1513;47.650;10.720;2022-12-18T08:42:39;19.00;;;6.80;;
3006;SDS011;1513;47.650;10.720;2022-12-18T08:45:23;26.43;;;11.03;;
3006;SDS011;1513;47.650;10.720;2022-12-18T08:47:49;20.10;;;6.93;;
3006;SDS011;1513;47.650;10.720;2022-12-18T08:50:15;71.17;;;9.83;;
3006;SDS011;1513;47.650;10.720;2022-12-18T08:52:41;144.57;;;10.67;;
3006;SDS011;1513;47.650;10.720;2022-12-18T08:55:07;45.33;;;9.60;;
3006;SDS011;1513;47.650;10.720;2022-12-18T08:57:34;144.10;;;12.87;;
3006;SDS011;1513;47.650;10.720;2022-12-18T09:00:00;46.50;;;8.60;;
3006;SDS011;1513;47.650;10.720;2022-12-18T09:02:26;103.40;;;10.50;;
3006;SDS011;1513;47.650;10.720;2022-12-18T09:04:52;49.53;;;10.00;;
3006;SDS011;1513;47.650;10.720;2022-12-18T09:07:17;73.00;;;9.43;;
3006;SDS011;1513;47.650;10.720;2022-12-18T09:09:43;79.47;;;10.50;;
3006;SDS011;1513;47.650;10.720;2022-12-18T09:12:09;62.50;;;8.87;;
3006;SDS011;1513;47.650;10.720;2022-12-18T09:14:35;54.27;;;8.03;;
3006;SDS011;1513;47.650;10.720;2022-12-18T09:17:01;31.53;;;7.63;;
3006;SDS011;1513;47.650;10.720;2022-12-18T09:19:27;40.23;;;9.43;;
3006;SDS011;1513;47.650;10.720;2022-12-18T09:21:53;48.13;;;9.07;;
3006;SDS011;1513;47.650;10.720;2022-12-18T09:24:19;47.97;;;8.97;;
3006;SDS011;1513;47.650;10.720;2022-12-18T09:26:47;60.23;;;9.63;;
3006;SDS011;1513;47.650;10.720;2022-12-18T09:29:14;111.67;;;9.33;;
3006;SDS011;1513;47.650;10.720;2022-12-18T09:31:40;85.03;;;11.10;;
3006;SDS011;1513;47.650;10.720;2022-12-18T09:34:06;65.03;;;8.93;;
3006;SDS011;1513;47.650;10.720;2022-12-18T09:36:32;85.57;;;10.70;;
3006;SDS011;1513;47.650;10.720;2022-12-18T09:38:58;100.10;;;11.07;;
3006;SDS011;1513;47.650;10.720;2022-12-18T09:41:30;60.17;;;10.37;;
3006;SDS011;1513;47.650;10.720;2022-12-18T09:50:00;51.40;;;9.30;;
3006;SDS011;1513;47.650;10.720;2022-12-18T09:52:49;30.63;;;9.53;;
3006;SDS011;1513;47.650;10.720;2022-12-18T09:57:54;97.03;;;13.57;;
3006;SDS011;1513;47.650;10.720;2022-12-18T10:00:28;85.73;;;16.33;;
3006;SDS011;1513;47.650;10.720;2022-12-18T10:02:59;175.13;;;40.10;;
3006;SDS011;1513;47.650;10.720;2022-12-18T10:10:57;153.50;;;16.30;;
3006;SDS011;1513;47.650;10.720;2022-12-18T10:13:45;41.97;;;9.07;;
3006;SDS011;1513;47.650;10.720;2022-12-18T10:19:47;37.90;;;9.17;;
3006;SDS011;1513;47.650;10.720;2022-12-18T10:28:22;55.10;;;10.27;;
3006;SDS011;1513;47.650;10.720;2022-12-18T10:30:49;45.83;;;10.67;;
3006;SDS011;1513;47.650;10.720;2022-12-18T10:33:16;43.37;;;10.60;;
3006;SDS011;1513;47.650;10.720;2022-12-18T10:35:46;43.53;;;10.57;;
3006;SDS011;1513;47.650;10.720;2022-12-18T10:43:25;40.97;;;10.57;;
3006;SDS011;1513;47.650;10.720;2022-12-18T10:51:04;58.60;;;11.57;;
3006;SDS011;1513;47.650;10.720;2022-12-18T10:53:31;94.07;;;18.63;;
3006;SDS011;1513;47.650;10.720;2022-12-18T10:56:02;50.20;;;15.10;;
3006;SDS011;1513;47.650;10.720;2022-12-18T10:58:31;85.93;;;12.73;;
3006;SDS011;1513;47.650;10.720;2022-12-18T11:03:32;50.47;;;11.07;;
3006;SDS011;1513;47.650;10.720;2022-12-18T11:06:10;55.40;;;10.70;;
3006;SDS011;1513;47.650;10.720;2022-12-18T11:08:39;53.17;;;10.97;;
3006;SDS011;1513;47.650;10.720;2022-12-18T11:11:15;49.60;;;9.80;;
3006;SDS011;1513;47.650;10.720;2022-12-18T11:13:52;67.50;;;11.67;;
3006;SDS011;1513;47.650;10.720;2022-12-18T11:16:53;87.10;;;11.87;;
3006;SDS011;1513;47.650;10.720;2022-12-18T11:19:20;56.13;;;12.20;;
3006;SDS011;1513;47.650;10.720;2022-12-18T11:22:02;137.60;;;13.43;;
3006;SDS011;1513;47.650;10.720;2022-12-18T11:24:51;113.07;;;13.20;;
3006;SDS011;1513;47.650;10.720;2022-12-18T11:27:24;49.80;;;12.47;;
3006;SDS011;1513;47.650;10.720;2022-12-18T11:29:50;116.40;;;12.93;;
3006;SDS011;1513;47.650;10.720;2022-12-18T11:32:33;79.80;;;11.30;;
3006;SDS011;1513;47.650;10.720;2022-12-18T11:35:17;51.93;;;11.93;;
3006;SDS011;1513;47.650;10.720;2022-12-18T11:38:21;94.10;;;14.13;;
3006;SDS011;1513;47.650;10.720;2022-12-18T11:43:41;61.30;;;14.87;;
3006;SDS011;1513;47.650;10.720;2022-12-18T11:46:19;105.73;;;17.50;;
3006;SDS011;1513;47.650;10.720;2022-12-18T11:49:20;70.10;;;18.80;;
3006;SDS011;1513;47.650;10.720;2022-12-18T11:51:53;59.57;;;20.53;;
3006;SDS011;1513;47.650;10.720;2022-12-18T11:54:24;64.90;;;19.53;;
3006;SDS011;1513;47.650;10.720;2022-12-18T11:56:51;50.17;;;16.40;;
3006;SDS011;1513;47.650;10.720;2022-12-18T11:59:48;74.20;;;19.60;;
3006;SDS011;1513;47.650;10.720;2022-12-18T12:09:00;64.07;;;19.07;;
3006;SDS011;1513;47.650;10.720;2022-12-18T12:11:44;65.53;;;20.47;;
3006;SDS011;1513;47.650;10.720;2022-12-18T12:17:38;67.97;;;20.53;;
3006;SDS011;1513;47.650;10.720;2022-12-18T12:20:15;73.03;;;20.43;;
3006;SDS011;1513;47.650;10.720;2022-12-18T12:23:02;94.83;;;21.40;;
3006;SDS011;1513;47.650;10.720;2022-12-18T12:35:20;101.13;;;29.37;;
3006;SDS011;1513;47.650;10.720;2022-12-18T12:38:28;55.53;;;15.73;;
3006;SDS011;1513;47.650;10.720;2022-12-18T12:41:09;55.17;;;17.70;;
3006;SDS011;1513;47.650;10.720;2022-12-18T12:44:17;65.97;;;19.00;;
3006;SDS011;1513;47.650;10.720;2022-12-18T12:46:49;68.57;;;20.90;;
3006;SDS011;1513;47.650;10.720;2022-12-18T12:49:25;54.63;;;16.63;;
3006;SDS011;1513;47.650;10.720;2022-12-18T12:51:58;43.23;;;14.63;;
3006;SDS011;1513;47.650;10.720;2022-12-18T12:54:31;42.47;;;17.13;;
3006;SDS011;1513;47.650;10.720;2022-12-18T12:59:47;65.97;;;23.57;;
3006;SDS011;1513;47.650;10.720;2022-12-18T13:02:23;54.90;;;19.27;;
3006;SDS011;1513;47.650;10.720;2022-12-18T13:05:09;34.90;;;14.57;;
3006;SDS011;1513;47.650;10.720;2022-12-18T13:10:37;45.10;;;16.47;;
3006;SDS011;1513;47.650;10.720;2022-12-18T13:13:13;50.00;;;17.43;;
3006;SDS011;1513;47.650;10.720;2022-12-18T13:15:45;36.10;;;14.43;;
3006;SDS011;1513;47.650;10.720;2022-12-18T13:18:31;27.43;;;11.10;;
3006;SDS011;1513;47.650;10.720;2022-12-18T13:25:50;49.40;;;16.23;;
3006;SDS011;1513;47.650;10.720;2022-12-18T13:34:25;42.30;;;13.70;;
3006;SDS011;1513;47.650;10.720;2022-12-18T13:36:55;40.23;;;13.70;;
3006;SDS011;1513;47.650;10.720;2022-12-18T13:43:15;43.60;;;14.63;;
3006;SDS011;1513;47.650;10.720;2022-12-18T13:49:00;41.90;;;14.40;;
3006;SDS011;1513;47.650;10.720;2022-12-18T13:51:32;36.67;;;12.57;;
3006;SDS011;1513;47.650;10.720;2022-12-18T13:54:00;35.70;;;12.20;;
3006;SDS011;1513;47.650;10.720;2022-12-18T13:56:45;46.53;;;14.60;;
3006;SDS011;1513;47.650;10.720;2022-12-18T13:59:20;42.07;;;13.43;;
3006;SDS011;1513;47.650;10.720;2022-12-18T14:01:55;38.23;;;14.07;;
3006;SDS011;1513;47.650;10.720;2022-12-18T14:04:33;41.03;;;15.73;;
3006;SDS011;1513;47.650;10.720;2022-12-18T14:09:52;45.70;;;15.33;;
3006;SDS011;1513;47.650;10.720;2022-12-18T14:17:54;33.63;;;12.27;;
3006;SDS011;1513;47.650;10.720;2022-12-18T14:20:24;35.17;;;13.97;;
3006;SDS011;1513;47.650;10.720;2022-12-18T14:22:51;32.30;;;11.73;;
3006;SDS011;1513;47.650;10.720;2022-12-18T14:25:19;35.07;;;12.77;;
3006;SDS011;1513;47.650;10.720;2022-12-18T14:27:52;47.50;;;16.83;;
3006;SDS011;1513;47.650;10.720;2022-12-18T14:30:39;47.83;;;15.70;;
3006;SDS011;1513;47.650;10.720;2022-12-18T14:35:37;35.93;;;11.37;;
3006;SDS011;1513;47.650;10.720;2022-12-18T14:38:29;39.77;;;12.53;;
3006;SDS011;1513;47.650;10.720;2022-12-18T14:41:04;42.67;;;14.27;;
3006;SDS011;1513;47.650;10.720;2022-12-18T14:43:43;39.83;;;14.47;;
3006;SDS011;1513;47.650;10.720;2022-12-18T14:46:25;34.07;;;12.60;;
3006;SDS011;1513;47.650;10.720;2022-12-18T14:51:52;37.90;;;12.63;;
3006;SDS011;1513;47.650;10.720;2022-12-18T14:54:23;32.07;;;11.30;;
3006;SDS011;1513;47.650;10.720;2022-12-18T14:56:52;33.00;;;12.63;;
3006;SDS011;1513;47.650;10.720;2022-12-18T14:59:45;36.30;;;13.63;;
3006;SDS011;1513;47.650;10.720;2022-12-18T15:02:25;47.80;;;15.57;;
3006;SDS011;1513;47.650;10.720;2022-12-18T15:05:00;46.40;;;14.60;;
3006;SDS011;1513;47.650;10.720;2022-12-18T15:07:54;40.20;;;13.80;;
3006;SDS011;1513;47.650;10.720;2022-12-18T15:13:05;60.23;;;16.67;;
3006;SDS011;1513;47.650;10.720;2022-12-18T15:25:44;91.53;;;28.33;;
3006;SDS011;1513;47.650;10.720;2022-12-18T15:28:25;102.93;;;28.23;;
3006;SDS011;1513;47.650;10.720;2022-12-18T15:31:58;106.73;;;24.60;;
3006;SDS011;1513;47.650;10.720;2022-12-18T15:34:40;88.80;;;29.67;;
3006;SDS011;1513;47.650;10.720;2022-12-18T15:36:49;113.73;;;29.63;;
3006;SDS011;1513;47.650;10.720;2022-12-18T15:39:16;98.23;;;26.43;;
3006;SDS011;1513;47.650;10.720;2022-12-18T15:41:42;89.43;;;24.60;;
3006;SDS011;1513;47.650;10.720;2022-12-18T15:44:28;90.80;;;21.30;;
3006;SDS011;1513;47.650;10.720;2022-12-18T15:46:57;82.83;;;23.17;;
3006;SDS011;1513;47.650;10.720;2022-12-18T15:49:23;83.90;;;23.67;;
3006;SDS011;1513;47.650;10.720;2022-12-18T15:51:51;83.47;;;25.17;;
3006;SDS011;1513;47.650;10.720;2022-12-18T15:54:19;83.87;;;27.70;;
3006;SDS011;1513;47.650;10.720;2022-12-18T15:57:04;90.57;;;23.37;;
3006;SDS011;1513;47.650;10.720;2022-12-18T15:59:50;91.90;;;25.03;;
3006;SDS011;1513;47.650;10.720;2022-12-18T16:02:23;82.20;;;26.20;;
3006;SDS011;1513;47.650;10.720;2022-12-18T16:04:52;82.87;;;27.67;;
3006;SDS011;1513;47.650;10.720;2022-12-18T16:07:19;82.53;;;25.60;;
3006;SDS011;1513;47.650;10.720;2022-12-18T16:09:48;107.93;;;35.43;;
3006;SDS011;1513;47.650;10.720;2022-12-18T16:12:15;94.63;;;29.37;;
3006;SDS011;1513;47.650;10.720;2022-12-18T16:14:44;165.40;;;45.53;;
3006;SDS011;1513;47.650;10.720;2022-12-18T16:17:11;157.40;;;40.67;;
3006;SDS011;1513;47.650;10.720;2022-12-18T16:19:38;100.70;;;31.83;;
3006;SDS011;1513;47.650;10.720;2022-12-18T16:22:04;129.43;;;37.17;;
3006;SDS011;1513;47.650;10.720;2022-12-18T16:24:31;144.77;;;37.70;;
3006;SDS011;1513;47.650;10.720;2022-12-18T16:27:01;163.97;;;45.07;;
3006;SDS011;1513;47.650;10.720;2022-12-18T16:29:27;304.13;;;75.47;;
3006;SDS011;1513;47.650;10.720;2022-12-18T16:31:57;331.13;;;83.23;;
3006;SDS011;1513;47.650;10.720;2022-12-18T16:34:25;419.43;;;102.97;;
3006;SDS011;1513;47.650;10.720;2022-12-18T16:36:57;180.77;;;45.40;;
3006;SDS011;1513;47.650;10.720;2022-12-18T16:39:26;131.00;;;32.20;;
3006;SDS011;1513;47.650;10.720;2022-12-18T16:41:52;128.83;;;35.10;;
3006;SDS011;1513;47.650;10.720;2022-12-18T16:44:18;118.37;;;29.03;;
3006;SDS011;1513;47.650;10.720;2022-12-18T16:46:45;114.43;;;28.30;;
3006;SDS011;1513;47.650;10.720;2022-12-18T16:49:12;133.60;;;32.33;;
3006;SDS011;1513;47.650;10.720;2022-12-18T16:51:40;126.40;;;35.97;;
3006;SDS011;1513;47.650;10.720;2022-12-18T16:54:06;123.63;;;30.17;;
3006;SDS011;1513;47.650;10.720;2022-12-18T16:56:33;80.63;;;22.50;;
3006;SDS011;1513;47.650;10.720;2022-12-18T16:58:59;91.47;;;25.70;;
3006;SDS011;1513;47.650;10.720;2022-12-18T17:01:28;122.53;;;34.45;;
3006;SDS011;1513;47.650;10.720;2022-12-18T17:04:02;129.37;;;35.03;;
3006;SDS011;1513;47.650;10.720;2022-12-18T17:06:34;94.27;;;30.73;;
3006;SDS011;1513;47.650;10.720;2022-12-18T17:09:05;191.77;;;53.70;;
3006;SDS011;1513;47.650;10.720;2022-12-18T17:11:35;229.70;;;62.90;;
3006;SDS011;1513;47.650;10.720;2022-12-18T17:14:12;198.83;;;53.03;;
3006;SDS011;1513;47.650;10.720;2022-12-18T17:16:40;141.90;;;43.53;;